Time;durP1;ratioP1;P1;durP2;ratioP2;P2;SDS_P1;SDS_P2;PMS_P1;PMS_P2;Temp;Humidity;BMP_temperature;BMP_pressure;BME280_temperature;BME280_humidity;BME280_pressure;Samples;Min_cycle;Max_cycle;Signal;HPM_P1;HPM_P2
2021/09/23 00:02:04;;;;;;;20.48;14.90;;;14.50;99.90;;;;;;5014465;28;20072;-78
2021/09/23 00:04:34;;;;;;;20.48;15.50;;;14.10;99.90;;;;;;5013902;28;20029;-78
2021/09/23 00:07:01;;;;;;;21.13;15.60;;;13.70;99.90;;;;;;5013830;28;20401;-77
2021/09/23 00:09:27;;;;;;;24.48;17.73;;;13.60;99.90;;;;;;5013972;28;20091;-78
2021/09/23 00:11:53;;;;;;;27.77;19.63;;;13.40;99.90;;;;;;5014026;28;20022;-77
2021/09/23 00:14:19;;;;;;;26.75;20.50;;;13.20;99.90;;;;;;5013768;28;20113;-77
2021/09/23 00:16:45;;;;;;;28.38;20.95;;;13.30;99.90;;;;;;5014026;28;20029;-77
2021/09/23 00:19:10;;;;;;;25.75;20.65;;;13.50;99.90;;;;;;5013943;28;20030;-77
2021/09/23 00:21:36;;;;;;;25.30;18.90;;;13.80;99.90;;;;;;5011618;28;20406;-78
2021/09/23 00:24:02;;;;;;;26.35;20.08;;;13.90;99.90;;;;;;5013451;28;20112;-77
2021/09/23 00:26:28;;;;;;;25.38;20.20;;;14.10;99.90;;;;;;5013748;28;20026;-78
2021/09/23 00:28:53;;;;;;;24.80;18.20;;;14.10;99.90;;;;;;5013524;28;20112;-77
2021/09/23 00:31:19;;;;;;;22.80;15.65;;;14.10;99.90;;;;;;5013883;28;20037;-77
2021/09/23 00:33:45;;;;;;;22.45;15.82;;;13.90;99.90;;;;;;5013323;28;20113;-78
2021/09/23 00:36:11;;;;;;;20.67;15.00;;;13.80;99.90;;;;;;4988058;28;20220;-78
2021/09/23 00:38:37;;;;;;;19.67;15.02;;;13.80;99.90;;;;;;5013442;28;20034;-77
2021/09/23 00:41:02;;;;;;;21.52;15.88;;;14.00;99.90;;;;;;5013557;28;20030;-77
2021/09/23 00:43:28;;;;;;;19.98;15.77;;;14.10;99.90;;;;;;5013438;28;20033;-77
2021/09/23 00:45:54;;;;;;;18.50;14.93;;;14.30;99.90;;;;;;5013402;28;20026;-77
2021/09/23 00:48:20;;;;;;;20.95;15.43;;;14.40;99.90;;;;;;5013517;28;20084;-77
2021/09/23 00:50:46;;;;;;;21.25;15.00;;;14.30;99.90;;;;;;5013072;28;20030;-78
2021/09/23 00:58:30;;;;;;;18.00;12.55;;;13.90;99.90;;;;;;5618424;23;20267;-78
2021/09/23 01:06:53;;;;;;;21.42;15.60;;;14.20;99.90;;;;;;4579186;28;20061;-79
2021/09/23 01:09:19;;;;;;;18.38;14.27;;;13.80;99.90;;;;;;5028356;28;20034;-78
2021/09/23 01:11:45;;;;;;;18.65;14.10;;;13.60;99.90;;;;;;5013391;28;20034;-79
2021/09/23 01:14:11;;;;;;;22.17;16.90;;;13.70;99.90;;;;;;5012713;28;20429;-79
2021/09/23 01:16:37;;;;;;;25.17;17.30;;;13.60;99.90;;;;;;5013310;28;20440;-79
2021/09/23 01:19:04;;;;;;;26.65;19.73;;;13.60;99.90;;;;;;5013183;28;20485;-79
2021/09/23 01:21:30;;;;;;;24.17;17.63;;;13.60;99.90;;;;;;5013010;28;20037;-79
2021/09/23 01:23:56;;;;;;;21.15;15.82;;;13.70;99.90;;;;;;5012927;28;20033;-79
2021/09/23 01:26:31;;;;;;;19.85;13.15;;;13.70;99.90;;;;;;5012928;28;20425;-79
2021/09/23 01:28:58;;;;;;;19.42;13.95;;;13.80;99.90;;;;;;5013120;28;20081;-79
2021/09/23 01:31:24;;;;;;;19.00;13.38;;;13.90;99.90;;;;;;5013724;28;20440;-79
2021/09/23 01:33:50;;;;;;;20.30;15.15;;;14.10;99.90;;;;;;5016893;28;20018;-79
2021/09/23 01:39:10;;;;;;;21.80;14.38;;;13.70;99.90;;;;;;4457849;22;22510;-79
2021/09/23 01:41:36;;;;;;;19.38;13.88;;;13.80;99.90;;;;;;5015403;28;20034;-79
2021/09/23 01:44:02;;;;;;;24.15;14.13;;;14.10;99.90;;;;;;5016622;28;20030;-79
2021/09/23 01:46:28;;;;;;;25.63;17.00;;;14.10;99.90;;;;;;5016824;28;20104;-79
2021/09/23 01:48:54;;;;;;;27.92;20.42;;;13.90;99.90;;;;;;5015489;28;20068;-78
2021/09/23 01:51:19;;;;;;;27.63;20.63;;;13.80;99.90;;;;;;5016431;28;20444;-79
2021/09/23 01:53:45;;;;;;;31.42;22.13;;;14.00;99.90;;;;;;5016360;28;20022;-79
2021/09/23 01:56:11;;;;;;;30.70;22.50;;;14.00;99.90;;;;;;5035776;28;20020;-79
2021/09/23 01:58:36;;;;;;;29.23;21.40;;;13.80;99.90;;;;;;5015798;28;20087;-79
2021/09/23 02:01:02;;;;;;;35.97;22.90;;;13.70;99.90;;;;;;5016202;28;20099;-79
2021/09/23 02:03:28;;;;;;;28.98;22.15;;;13.70;99.90;;;;;;5016595;28;20034;-78
2021/09/23 02:05:54;;;;;;;28.88;20.27;;;13.50;99.90;;;;;;5016093;28;20390;-79
2021/09/23 02:08:20;;;;;;;27.27;21.30;;;13.30;99.90;;;;;;5015933;28;20045;-79
2021/09/23 02:10:46;;;;;;;30.65;20.20;;;13.40;99.90;;;;;;5016163;28;20054;-79
2021/09/23 02:13:11;;;;;;;27.80;18.13;;;13.20;99.90;;;;;;5016316;28;20444;-79
2021/09/23 02:15:37;;;;;;;34.28;19.50;;;12.40;99.90;;;;;;5016293;28;20092;-79
2021/09/23 02:18:03;;;;;;;109.80;20.17;;;12.40;99.90;;;;;;5026998;28;20024;-78
2021/09/23 02:20:29;;;;;;;39.72;20.42;;;12.20;99.90;;;;;;5035655;28;20041;-78
2021/09/23 02:22:54;;;;;;;65.68;24.73;;;12.10;99.90;;;;;;5036116;28;20057;-79
2021/09/23 02:25:20;;;;;;;127.40;23.20;;;11.90;99.90;;;;;;5035783;28;20040;-79
2021/09/23 02:27:46;;;;;;;58.58;21.80;;;11.80;99.90;;;;;;5035501;28;20037;-79
2021/09/23 02:30:12;;;;;;;40.00;18.58;;;11.90;99.90;;;;;;5035489;28;20497;-78
2021/09/23 02:32:39;;;;;;;32.63;18.77;;;11.90;99.90;;;;;;5035776;28;20022;-79
2021/09/23 02:35:05;;;;;;;28.83;17.60;;;12.40;99.90;;;;;;5035788;28;20029;-79
2021/09/23 02:37:31;;;;;;;19.60;16.52;;;12.60;99.90;;;;;;5035496;28;20096;-79
2021/09/23 02:39:58;;;;;;;24.98;17.17;;;12.60;99.90;;;;;;5035421;28;20065;-79
2021/09/23 02:42:24;;;;;;;25.00;18.00;;;12.80;99.90;;;;;;5035600;28;20029;-78
2021/09/23 02:44:51;;;;;;;21.83;17.48;;;12.60;99.90;;;;;;5034473;28;20400;-78
2021/09/23 02:47:17;;;;;;;23.90;16.83;;;12.70;99.90;;;;;;5035240;28;20055;-79
2021/09/23 02:49:43;;;;;;;25.73;17.92;;;12.70;99.90;;;;;;5035238;28;20057;-79
2021/09/23 02:52:09;;;;;;;21.95;17.13;;;12.70;99.90;;;;;;5035382;28;20100;-79
2021/09/23 02:54:35;;;;;;;21.55;16.10;;;12.90;99.90;;;;;;5035412;28;20030;-79
2021/09/23 02:57:01;;;;;;;22.63;16.40;;;13.00;99.90;;;;;;5032381;28;20057;-79
2021/09/23 02:59:27;;;;;;;22.80;15.25;;;13.30;99.90;;;;;;5015359;28;20026;-79
2021/09/23 03:01:52;;;;;;;20.23;15.05;;;13.50;99.90;;;;;;5015379;28;20034;-79
2021/09/23 03:04:18;;;;;;;18.30;14.27;;;13.30;99.90;;;;;;5015364;28;20029;-79
2021/09/23 03:06:44;;;;;;;20.23;16.25;;;13.40;99.90;;;;;;5015131;28;20505;-79
2021/09/23 03:09:10;;;;;;;20.40;15.50;;;13.30;99.90;;;;;;5015134;28;20028;-79
2021/09/23 03:11:36;;;;;;;23.25;17.67;;;13.10;99.90;;;;;;5015395;28;20054;-79
2021/09/23 03:14:01;;;;;;;22.70;18.02;;;13.00;99.90;;;;;;5013712;28;20033;-79
2021/09/23 03:16:27;;;;;;;24.67;18.45;;;12.80;99.90;;;;;;5015222;28;20025;-79
2021/09/23 03:18:53;;;;;;;19.33;15.70;;;12.70;99.90;;;;;;5014649;28;20026;-78
2021/09/23 03:21:19;;;;;;;18.20;14.98;;;12.60;99.90;;;;;;5013754;28;20478;-79
2021/09/23 03:23:46;;;;;;;19.77;15.30;;;12.70;99.90;;;;;;5015125;28;20482;-79
2021/09/23 03:26:15;;;;;;;661.10;47.85;;;12.80;99.90;;;;;;5014681;28;20100;-79
2021/09/23 03:28:41;;;;;;;65.40;16.95;;;11.40;99.90;;;;;;5014549;28;20096;-79
2021/09/23 03:31:07;;;;;;;21.98;16.55;;;11.20;99.90;;;;;;5014523;28;20073;-78
2021/09/23 03:33:33;;;;;;;19.45;15.00;;;11.80;99.90;;;;;;5014894;28;20477;-79
2021/09/23 03:35:58;;;;;;;20.67;15.25;;;12.30;99.90;;;;;;5014825;28;20033;-79
2021/09/23 03:38:24;;;;;;;22.60;16.10;;;12.60;99.90;;;;;;5014194;28;20401;-79
2021/09/23 03:40:50;;;;;;;19.75;15.55;;;12.60;99.90;;;;;;5014624;28;20121;-78
2021/09/23 03:43:17;;;;;;;18.70;14.48;;;12.50;99.90;;;;;;5014491;28;20046;-79
2021/09/23 03:45:43;;;;;;;20.55;16.48;;;12.60;99.90;;;;;;5014482;28;20103;-79
2021/09/23 03:48:09;;;;;;;19.30;15.20;;;12.20;99.90;;;;;;5014096;28;20489;-79
2021/09/23 03:50:35;;;;;;;22.17;14.32;;;12.10;99.90;;;;;;5014308;28;20033;-79
2021/09/23 03:53:01;;;;;;;19.52;15.57;;;12.10;99.90;;;;;;5014608;28;20512;-79
2021/09/23 03:55:27;;;;;;;17.63;14.13;;;12.40;99.90;;;;;;5014450;28;20108;-79
2021/09/23 03:57:52;;;;;;;17.40;12.98;;;12.30;99.90;;;;;;5014261;28;20092;-79
2021/09/23 04:00:20;;;;;;;17.48;13.77;;;12.40;99.90;;;;;;5014196;28;20104;-79
2021/09/23 04:02:47;;;;;;;16.23;13.40;;;12.50;99.90;;;;;;5012823;28;20037;-79
2021/09/23 04:05:13;;;;;;;18.75;14.60;;;12.50;99.90;;;;;;5014210;28;20061;-79
2021/09/23 04:07:39;;;;;;;20.23;14.73;;;12.50;99.90;;;;;;5013934;28;20076;-79
2021/09/23 04:10:07;;;;;;;18.73;14.40;;;12.10;99.90;;;;;;5014077;28;20117;-78
2021/09/23 04:12:33;;;;;;;18.90;15.57;;;12.10;99.90;;;;;;5014123;28;20018;-79
2021/09/23 04:14:59;;;;;;;;;;;12.20;99.90;;;;;;5014422;28;20413;-79
2021/09/23 04:17:24;;;;;;;20.30;13.45;;;12.40;99.90;;;;;;5013709;28;19916;-79
2021/09/23 04:19:51;;;;;;;21.52;15.13;;;12.50;99.90;;;;;;5012789;28;20113;-78
2021/09/23 04:22:17;;;;;;;16.55;13.63;;;12.60;99.90;;;;;;5013956;28;20033;-79
2021/09/23 04:24:43;;;;;;;18.23;14.23;;;12.50;99.90;;;;;;5012596;28;20022;-78
2021/09/23 04:27:09;;;;;;;18.40;15.07;;;12.50;99.90;;;;;;5013410;28;20037;-79
2021/09/23 04:29:35;;;;;;;;;;;12.30;99.90;;;;;;5012778;28;20045;-79
2021/09/23 04:32:01;;;;;;;16.58;13.07;;;12.10;99.90;;;;;;5013953;28;19905;-79
2021/09/23 04:34:26;;;;;;;18.52;14.73;;;12.00;99.90;;;;;;5013703;28;20093;-78
2021/09/23 04:36:52;;;;;;;16.10;13.05;;;12.30;99.90;;;;;;5013621;28;20116;-79
2021/09/23 04:39:18;;;;;;;15.75;12.35;;;12.20;99.90;;;;;;5012929;28;20030;-79
2021/09/23 04:41:45;;;;;;;19.42;14.27;;;12.40;99.90;;;;;;5012112;28;20052;-79
2021/09/23 04:44:11;;;;;;;15.77;11.88;;;12.50;99.90;;;;;;5013587;28;20033;-78
2021/09/23 04:46:37;;;;;;;19.33;12.13;;;12.50;99.90;;;;;;5013589;28;20413;-79
2021/09/23 04:49:03;;;;;;;18.00;12.52;;;12.50;99.90;;;;;;5013064;28;20033;-79
2021/09/23 04:51:29;;;;;;;14.82;11.43;;;12.60;99.90;;;;;;5012237;28;20022;-78
2021/09/23 04:53:55;;;;;;;;;;;12.60;99.90;;;;;;5013849;28;20080;-79
2021/09/23 04:56:21;;;;;;;14.13;11.25;;;12.30;99.90;;;;;;5013471;28;19909;-79
2021/09/23 04:58:47;;;;;;;14.45;11.68;;;12.20;99.90;;;;;;5013018;28;20517;-79
2021/09/23 05:01:13;;;;;;;;;;;12.10;99.90;;;;;;5013852;28;20034;-79
2021/09/23 05:03:38;;;;;;;17.38;12.55;;;12.20;99.90;;;;;;5013318;28;19971;-78
2021/09/23 05:06:04;;;;;;;14.63;12.00;;;11.90;99.90;;;;;;5012986;28;20034;-79
2021/09/23 05:08:30;;;;;;;17.42;12.57;;;11.50;99.90;;;;;;5012921;28;20494;-78
2021/09/23 05:10:56;;;;;;;18.55;12.10;;;11.70;99.90;;;;;;5013235;28;20069;-78
2021/09/23 05:13:22;;;;;;;19.63;16.08;;;11.80;99.90;;;;;;5011963;28;20087;-79
2021/09/23 05:15:48;;;;;;;19.88;15.65;;;11.40;99.90;;;;;;5012933;28;20018;-79
2021/09/23 05:18:13;;;;;;;17.63;13.93;;;11.20;99.90;;;;;;5021241;28;20477;-79
2021/09/23 05:20:39;;;;;;;17.15;13.80;;;11.20;99.90;;;;;;5032876;28;20040;-79
2021/09/23 05:23:06;;;;;;;16.00;13.20;;;11.40;99.90;;;;;;5033228;28;20052;-78
2021/09/23 05:25:33;;;;;;;17.80;13.95;;;11.60;99.90;;;;;;5032738;28;20456;-79
2021/09/23 05:27:59;;;;;;;16.27;14.05;;;11.80;99.90;;;;;;5032511;28;20033;-78
2021/09/23 05:30:24;;;;;;;;;;;11.40;99.90;;;;;;5033282;28;20065;-78
2021/09/23 05:32:51;;;;;;;17.08;12.73;;;11.00;99.90;;;;;;5032733;28;20168;-79
2021/09/23 05:35:17;;;;;;;15.70;12.35;;;10.90;99.90;;;;;;5032809;28;20056;-78
2021/09/23 05:37:42;;;;;;;18.02;12.27;;;11.20;99.90;;;;;;5032339;28;20025;-78
2021/09/23 05:40:10;;;;;;;18.48;13.90;;;11.30;99.90;;;;;;5032610;28;20041;-79
2021/09/23 05:42:36;;;;;;;20.83;14.73;;;11.40;99.90;;;;;;5031448;28;20477;-78
2021/09/23 05:45:03;;;;;;;19.23;13.82;;;11.70;99.90;;;;;;5031227;28;20076;-79
2021/09/23 05:47:29;;;;;;;35.30;17.08;;;11.80;99.90;;;;;;5031023;28;20040;-78
2021/09/23 05:49:55;;;;;;;131.00;16.42;;;11.70;99.90;;;;;;5032506;28;20060;-78
2021/09/23 05:52:21;;;;;;;26.02;16.08;;;11.30;99.90;;;;;;5031396;28;20025;-78
2021/09/23 05:54:47;;;;;;;29.73;17.52;;;11.20;99.90;;;;;;5032466;28;20028;-79
2021/09/23 05:57:20;;;;;;;23.45;16.05;;;11.10;99.90;;;;;;5032593;28;20108;-78
2021/09/23 05:59:46;;;;;;;24.77;15.25;;;11.30;99.90;;;;;;5032024;28;20026;-79
2021/09/23 06:02:11;;;;;;;21.25;15.80;;;11.50;99.90;;;;;;5032376;28;20029;-78
2021/09/23 06:04:37;;;;;;;28.45;14.50;;;11.80;99.90;;;;;;5031075;28;20160;-79
2021/09/23 06:07:03;;;;;;;22.13;14.38;;;11.90;99.90;;;;;;5032456;28;20030;-79
2021/09/23 06:09:29;;;;;;;22.33;14.90;;;12.10;99.90;;;;;;5031993;28;20029;-79
2021/09/23 06:11:55;;;;;;;21.33;15.38;;;12.20;99.90;;;;;;5032410;28;20032;-79
2021/09/23 06:14:21;;;;;;;22.67;15.43;;;12.20;99.90;;;;;;5031000;28;20047;-79
2021/09/23 06:16:47;;;;;;;24.52;16.08;;;12.10;99.90;;;;;;5032386;28;20384;-79
2021/09/23 06:19:13;;;;;;;20.77;14.55;;;12.10;99.90;;;;;;5033792;28;20029;-78
2021/09/23 06:21:40;;;;;;;22.13;15.80;;;12.00;99.90;;;;;;5034765;28;20043;-79
2021/09/23 06:24:07;;;;;;;23.25;16.05;;;11.90;99.90;;;;;;5035910;28;20084;-79
2021/09/23 06:26:33;;;;;;;28.42;17.63;;;11.80;99.90;;;;;;5035745;28;20026;-78
2021/09/23 06:29:00;;;;;;;18.55;13.30;;;11.40;99.90;;;;;;5035295;28;20072;-78
2021/09/23 06:31:26;;;;;;;21.05;15.38;;;11.40;99.90;;;;;;5035923;28;20030;-79
2021/09/23 06:33:52;;;;;;;20.17;14.02;;;11.60;99.90;;;;;;5035734;28;20485;-79
2021/09/23 06:36:18;;;;;;;20.30;15.57;;;12.20;99.90;;;;;;5034398;28;20445;-79
2021/09/23 06:38:44;;;;;;;20.35;13.63;;;12.30;99.90;;;;;;5023902;28;20029;-79
2021/09/23 06:41:12;;;;;;;19.70;12.20;;;12.80;99.90;;;;;;5014218;28;20077;-79
2021/09/23 06:43:39;;;;;;;16.63;12.73;;;13.50;99.90;;;;;;5015792;28;20536;-79
2021/09/23 06:46:05;;;;;;;15.88;11.88;;;13.40;99.90;;;;;;5015353;28;20485;-79
2021/09/23 06:48:31;;;;;;;;;;;13.70;99.90;;;;;;5015797;28;20018;-79
2021/09/23 06:50:57;;;;;;;14.60;10.55;;;14.10;99.90;;;;;;5013956;28;19913;-78
2021/09/23 06:53:24;;;;;;;17.65;10.10;;;14.40;99.90;;;;;;5015662;28;20501;-79
2021/09/23 06:55:49;;;;;;;12.95;9.65;;;14.60;99.90;;;;;;5014198;28;20029;-79
2021/09/23 06:58:15;;;;;;;;;;;14.70;99.90;;;;;;5015615;28;20018;-79
2021/09/23 07:00:41;;;;;;;15.55;9.13;;;14.70;99.90;;;;;;5015373;28;20340;-79
2021/09/23 07:03:06;;;;;;;;;;;14.90;99.90;;;;;;5015856;28;20080;-79
2021/09/23 07:05:32;;;;;;;13.73;10.32;;;14.80;99.90;;;;;;5015605;28;19992;-79
2021/09/23 07:07:58;;;;;;;;;;;14.80;99.90;;;;;;5015553;28;20737;-79
2021/09/23 07:10:24;;;;;;;14.98;10.23;;;15.10;99.90;;;;;;5015310;28;20412;-79
2021/09/23 07:12:49;;;;;;;;;;;15.60;99.90;;;;;;5015634;28;20025;-79
2021/09/23 07:15:15;;;;;;;13.40;9.57;;;15.80;99.90;;;;;;5014868;28;19906;-79
2021/09/23 07:17:41;;;;;;;;;;;15.90;99.90;;;;;;5015545;28;20440;-79
2021/09/23 07:20:07;;;;;;;13.02;8.95;;;16.20;99.90;;;;;;5015012;28;20023;-79
2021/09/23 07:22:33;;;;;;;13.57;10.43;;;16.30;99.90;;;;;;5015125;28;20018;-79
2021/09/23 07:24:59;;;;;;;15.85;11.30;;;16.30;99.90;;;;;;5014991;28;20444;-79
2021/09/23 07:27:25;;;;;;;15.18;10.45;;;15.90;99.90;;;;;;5013655;28;20529;-79
2021/09/23 07:29:51;;;;;;;14.77;11.40;;;16.10;99.90;;;;;;5015155;28;20034;-79
2021/09/23 07:32:17;;;;;;;17.58;11.48;;;16.50;99.90;;;;;;5015223;28;20581;-79
2021/09/23 07:34:43;;;;;;;;;;;16.50;99.90;;;;;;5015575;28;20482;-79
2021/09/23 07:37:09;;;;;;;18.90;13.60;;;17.10;99.90;;;;;;5015221;28;19905;-79
2021/09/23 07:39:36;;;;;;;17.33;12.75;;;17.60;99.90;;;;;;5014863;28;20045;-80
2021/09/23 07:42:02;;;;;;;15.80;12.10;;;18.20;99.90;;;;;;5015169;28;20029;-79
2021/09/23 07:44:28;;;;;;;16.20;11.73;;;19.10;99.20;;;;;;5014999;28;20406;-80
2021/09/23 07:46:59;;;;;;;14.50;11.80;;;20.40;97.20;;;;;;5013649;28;20109;-79
2021/09/23 07:49:27;;;;;;;17.75;12.93;;;21.10;95.70;;;;;;5014919;28;20501;-80
2021/09/23 07:51:53;;;;;;;15.10;11.93;;;20.80;94.00;;;;;;5014793;28;20022;-80
2021/09/23 07:54:18;;;;;;;19.05;12.60;;;20.20;95.30;;;;;;5014764;28;20105;-80
2021/09/23 07:56:45;;;;;;;16.48;12.82;;;21.00;95.10;;;;;;5015199;28;20464;-80
2021/09/23 07:59:11;;;;;;;14.50;11.10;;;21.40;94.30;;;;;;5014702;28;20014;-80
2021/09/23 08:01:37;;;;;;;15.57;11.40;;;23.30;93.00;;;;;;5014756;28;20470;-80
2021/09/23 08:04:03;;;;;;;15.30;11.15;;;24.50;90.50;;;;;;5014661;28;20072;-80
2021/09/23 08:06:29;;;;;;;16.90;12.10;;;25.30;87.80;;;;;;5013277;28;20034;-80
2021/09/23 08:08:57;;;;;;;15.98;11.93;;;26.00;84.10;;;;;;5013169;28;20401;-80
2021/09/23 08:11:24;;;;;;;19.65;11.80;;;26.50;82.70;;;;;;5014454;28;20030;-80
2021/09/23 08:13:50;;;;;;;13.57;10.65;;;26.30;81.20;;;;;;5014409;28;20018;-81
2021/09/23 08:16:16;;;;;;;16.40;12.00;;;26.30;82.00;;;;;;5014349;28;20441;-79
2021/09/23 08:18:41;;;;;;;14.95;11.63;;;27.30;79.40;;;;;;5014300;28;20476;-79
2021/09/23 08:21:07;;;;;;;17.85;12.80;;;27.60;77.60;;;;;;5014263;28;20025;-78
2021/09/23 08:23:33;;;;;;;18.83;12.80;;;28.10;76.40;;;;;;5012998;28;20116;-78
2021/09/23 08:25:59;;;;;;;15.13;12.52;;;28.60;74.60;;;;;;5014637;28;20037;-78
2021/09/23 08:28:27;;;;;;;13.88;11.02;;;28.30;74.70;;;;;;5014299;28;20482;-78
2021/09/23 08:30:56;;;;;;;15.55;11.38;;;28.40;74.30;;;;;;5014297;28;20026;-79
2021/09/23 08:33:22;;;;;;;18.10;11.13;;;29.40;73.20;;;;;;5014155;28;20033;-78
2021/09/23 08:35:48;;;;;;;17.33;12.90;;;29.40;72.80;;;;;;5014062;28;20014;-78
2021/09/23 08:38:19;;;;;;;15.68;11.05;;;29.50;70.90;;;;;;5014088;28;20022;-79
2021/09/23 08:40:52;;;;;;;14.35;10.18;;;28.40;73.30;;;;;;5012075;28;20133;-79
2021/09/23 08:43:18;;;;;;;14.77;10.43;;;29.20;72.80;;;;;;5013828;28;20105;-79
2021/09/23 08:45:44;;;;;;;14.57;10.30;;;29.90;70.50;;;;;;5012662;28;20121;-79
2021/09/23 08:48:10;;;;;;;14.40;9.70;;;30.00;68.70;;;;;;5014062;28;20445;-79
2021/09/23 08:50:38;;;;;;;12.50;9.43;;;30.00;69.00;;;;;;5012485;28;20061;-79
2021/09/23 08:53:05;;;;;;;12.70;9.80;;;30.30;68.30;;;;;;5013823;28;20022;-79
2021/09/23 08:55:33;;;;;;;11.43;8.82;;;30.10;67.70;;;;;;5012525;28;20032;-79
2021/09/23 08:58:03;;;;;;;13.82;9.57;;;30.50;66.40;;;;;;5013784;28;20026;-79
2021/09/23 09:00:31;;;;;;;13.00;9.73;;;31.50;65.70;;;;;;5012172;28;20064;-79
2021/09/23 09:03:07;;;;;;;13.23;8.90;;;31.90;64.00;;;;;;5013883;28;20056;-79
2021/09/23 09:05:34;;;;;;;14.57;9.45;;;32.40;62.30;;;;;;5013935;28;20037;-80
2021/09/23 09:08:05;;;;;;;13.50;8.63;;;33.10;60.10;;;;;;5012381;28;20474;-79
2021/09/23 09:10:32;;;;;;;12.05;8.55;;;33.80;58.60;;;;;;5013593;28;20026;-79
2021/09/23 09:13:03;;;;;;;13.50;8.93;;;34.20;57.30;;;;;;5013572;28;20032;-79
2021/09/23 09:15:35;;;;;;;13.52;9.05;;;34.90;56.10;;;;;;5013558;28;20026;-79
2021/09/23 09:18:14;;;;;;;10.25;6.85;;;35.60;53.30;;;;;;5012049;28;20037;-79
2021/09/23 09:21:13;;;;;;;12.13;7.68;;;36.30;52.60;;;;;;5013454;28;20057;-79
2021/09/23 09:23:49;;;;;;;12.48;7.20;;;37.30;49.70;;;;;;4998799;28;20033;-79
2021/09/23 09:26:36;;;;;;;11.25;7.20;;;38.00;48.70;;;;;;5013607;28;20562;-79
2021/09/23 09:29:04;;;;;;;10.20;6.85;;;38.40;47.30;;;;;;5011924;28;20026;-80
2021/09/23 09:31:31;;;;;;;12.57;7.85;;;38.50;46.60;;;;;;5013421;28;20117;-80
2021/09/23 09:34:01;;;;;;;11.23;7.00;;;39.00;45.40;;;;;;5012118;28;20425;-80
2021/09/23 09:36:33;;;;;;;10.98;8.13;;;39.90;45.70;;;;;;5013536;28;20046;-80
2021/09/23 09:39:11;;;;;;;10.50;7.25;;;41.30;43.50;;;;;;5012012;28;20030;-80
2021/09/23 09:41:40;;;;;;;11.27;7.78;;;41.00;42.80;;;;;;5013339;28;20034;-80
2021/09/23 09:44:09;;;;;;;10.65;7.10;;;42.10;42.40;;;;;;5013271;28;20033;-80
2021/09/23 09:46:39;;;;;;;10.55;8.13;;;42.00;41.30;;;;;;5013235;28;20112;-81
2021/09/23 09:49:04;;;;;;;13.43;10.32;;;43.00;41.00;;;;;;5013226;28;20026;-80
2021/09/23 09:51:46;;;;;;;12.15;8.50;;;44.10;39.50;;;;;;5013214;28;20018;-80
2021/09/23 09:54:15;;;;;;;8.75;5.68;;;42.80;39.90;;;;;;5016633;28;20022;-80
2021/09/23 09:56:43;;;;;;;10.70;6.05;;;40.10;41.20;;;;;;5016985;28;20473;-80
2021/09/23 09:59:14;;;;;;;9.85;5.70;;;39.60;41.10;;;;;;5015558;28;20390;-80
2021/09/23 10:01:42;;;;;;;9.15;5.03;;;38.30;42.30;;;;;;5016902;28;20025;-79
2021/09/23 10:04:10;;;;;;;9.40;5.00;;;34.30;46.10;;;;;;5016841;28;20045;-80
2021/09/23 10:06:38;;;;;;;11.13;5.15;;;36.60;46.60;;;;;;5016821;28;20450;-79
2021/09/23 10:09:05;;;;;;;9.80;4.55;;;34.30;46.70;;;;;;5015534;28;20109;-79
2021/09/23 10:11:31;;;;;;;10.85;5.15;;;32.90;48.80;;;;;;5016788;28;20068;-79
2021/09/23 10:13:58;;;;;;;10.45;5.40;;;32.40;50.20;;;;;;5016685;28;20033;-79
2021/09/23 10:16:24;;;;;;;9.18;5.07;;;36.00;46.90;;;;;;5016926;28;20033;-80
2021/09/23 10:18:51;;;;;;;8.75;4.13;;;37.20;44.00;;;;;;5016582;28;20418;-79
2021/09/23 10:21:17;;;;;;;9.40;4.32;;;34.00;47.10;;;;;;5016473;28;20026;-79
2021/09/23 10:23:44;;;;;;;10.27;4.30;;;31.60;50.50;;;;;;5016697;28;20547;-79
2021/09/23 10:26:17;;;;;;;9.52;4.50;;;30.40;52.40;;;;;;5016447;28;20020;-79
2021/09/23 10:28:45;;;;;;;8.48;4.35;;;34.00;50.90;;;;;;5014852;28;20026;-80
2021/09/23 10:31:19;;;;;;;11.02;5.10;;;38.80;45.30;;;;;;5016263;28;20045;-80
2021/09/23 10:33:47;;;;;;;10.60;6.13;;;40.60;42.00;;;;;;5016147;28;20034;-80
2021/09/23 10:36:15;;;;;;;12.95;5.53;;;40.50;41.10;;;;;;5016276;28;20026;-80
2021/09/23 10:38:42;;;;;;;9.50;4.20;;;40.20;42.10;;;;;;5016186;28;20040;-80
2021/09/23 10:41:09;;;;;;;9.10;4.55;;;36.90;43.40;;;;;;5014635;28;20494;-80
2021/09/23 10:43:36;;;;;;;8.02;4.00;;;40.80;42.80;;;;;;5014880;28;20096;-80
2021/09/23 10:46:03;;;;;;;11.13;3.83;;;37.60;43.30;;;;;;5016428;28;20026;-79
2021/09/23 10:48:36;;;;;;;10.13;3.63;;;34.70;47.10;;;;;;5016144;28;20018;-79
2021/09/23 10:51:05;;;;;;;9.63;4.20;;;33.30;49.80;;;;;;5016129;28;20056;-78
2021/09/23 10:53:33;;;;;;;11.15;4.25;;;32.10;51.00;;;;;;5016158;28;20443;-79
2021/09/23 10:56:03;;;;;;;11.68;4.07;;;31.40;52.80;;;;;;5014746;28;20083;-79
2021/09/23 10:58:30;;;;;;;10.50;3.90;;;30.60;53.60;;;;;;5014603;28;20112;-79
2021/09/23 11:00:59;;;;;;;9.50;4.20;;;30.40;54.70;;;;;;5015746;28;20524;-79
2021/09/23 11:03:34;;;;;;;10.85;3.30;;;31.80;53.60;;;;;;5015788;28;20030;-79
2021/09/23 11:06:09;;;;;;;9.35;3.50;;;33.10;50.80;;;;;;5015314;28;20109;-79
2021/09/23 11:08:56;;;;;;;9.70;3.22;;;31.80;52.00;;;;;;5014033;28;20026;-79
2021/09/23 11:11:24;;;;;;;9.88;3.17;;;30.20;53.90;;;;;;5015954;28;20030;-79
2021/09/23 11:13:51;;;;;;;11.45;3.22;;;29.40;54.70;;;;;;5015586;28;20104;-79
2021/09/23 11:16:18;;;;;;;9.85;3.60;;;30.70;55.70;;;;;;5015494;28;20030;-80
2021/09/23 11:18:44;;;;;;;8.65;3.58;;;35.70;48.70;;;;;;5015465;28;20148;-80
2021/09/23 11:21:10;;;;;;;8.85;4.10;;;35.90;47.70;;;;;;5014052;28;20549;-80
2021/09/23 11:23:37;;;;;;;8.57;4.30;;;38.90;43.50;;;;;;5014103;28;20032;-81
2021/09/23 11:26:04;;;;;;;9.57;5.32;;;40.10;41.70;;;;;;5014080;28;20112;-81
2021/09/23 11:28:31;;;;;;;7.53;3.40;;;42.60;39.30;;;;;;5015404;28;20036;-81
2021/09/23 11:30:57;;;;;;;7.15;2.83;;;39.60;42.00;;;;;;5015273;28;20022;-80
2021/09/23 11:33:25;;;;;;;7.88;3.47;;;36.60;43.40;;;;;;5015183;28;20022;-80
2021/09/23 11:35:52;;;;;;;8.30;4.70;;;39.40;43.30;;;;;;5013894;28;20029;-81
2021/09/23 11:38:20;;;;;;;9.55;6.32;;;43.60;40.10;;;;;;5013787;28;20034;-81
2021/09/23 11:40:51;;;;;;;10.38;7.38;;;45.00;38.00;;;;;;5013479;28;20465;-81
2021/09/23 11:43:22;;;;;;;10.27;8.85;;;45.30;37.60;;;;;;5013522;28;20117;-81
2021/09/23 11:45:53;;;;;;;11.45;9.90;;;46.60;36.60;;;;;;5015544;28;20385;-81
2021/09/23 11:48:24;;;;;;;13.23;11.82;;;46.40;36.50;;;;;;5013430;28;20489;-81
2021/09/23 11:51:03;;;;;;;12.13;10.83;;;47.80;35.00;;;;;;5014986;28;20033;-81
2021/09/23 11:53:32;;;;;;;12.82;11.63;;;47.00;35.20;;;;;;5015387;28;20022;-81
2021/09/23 11:55:57;;;;;;;15.55;14.05;;;47.80;35.00;;;;;;5014773;28;20022;-81
2021/09/23 11:58:24;;;;;;;15.70;14.20;;;48.70;34.40;;;;;;5013427;28;20029;-81
2021/09/23 12:00:51;;;;;;;16.48;15.07;;;50.20;34.20;;;;;;5014712;28;20033;-81
2021/09/23 12:03:20;;;;;;;14.23;12.93;;;50.40;33.60;;;;;;5013344;28;20116;-81
2021/09/23 12:05:47;;;;;;;14.70;13.40;;;49.30;33.90;;;;;;5014661;28;20029;-81
2021/09/23 12:08:14;;;;;;;20.33;18.40;;;49.50;34.20;;;;;;5013270;28;20025;-81
2021/09/23 12:10:56;;;;;;;18.77;17.17;;;51.40;33.30;;;;;;5014608;28;20026;-81
2021/09/23 12:13:36;;;;;;;9.77;6.20;;;50.70;33.20;;;;;;5014990;28;20033;-80
2021/09/23 12:16:08;;;;;;;10.57;6.30;;;45.40;35.20;;;;;;5013714;28;20026;-81
2021/09/23 12:18:36;;;;;;;10.00;4.03;;;45.80;34.40;;;;;;5014544;28;20026;-80
2021/09/23 12:21:07;;;;;;;8.30;4.88;;;42.80;37.80;;;;;;5014219;28;20108;-80
2021/09/23 12:23:40;;;;;;;9.80;5.30;;;45.20;36.70;;;;;;5014394;28;20509;-81
2021/09/23 12:26:24;;;;;;;10.85;6.78;;;46.40;35.40;;;;;;5014720;28;20027;-81
2021/09/23 12:28:58;;;;;;;9.48;8.05;;;47.60;34.30;;;;;;5014373;28;20029;-81
2021/09/23 12:31:47;;;;;;;11.75;10.50;;;47.70;33.60;;;;;;5012907;28;20088;-81
2021/09/23 12:34:23;;;;;;;14.93;13.63;;;49.10;33.10;;;;;;5012821;28;20088;-81
2021/09/23 12:36:58;;;;;;;18.95;17.33;;;50.90;32.90;;;;;;5014088;28;20026;-81
2021/09/23 12:39:25;;;;;;;18.40;16.90;;;52.10;32.60;;;;;;5013723;28;20030;-81
2021/09/23 12:41:51;;;;;;;19.80;18.20;;;52.20;32.60;;;;;;5014048;28;20486;-81
2021/09/23 12:44:22;;;;;;;20.08;18.42;;;52.70;32.30;;;;;;5013986;28;20136;-81
2021/09/23 12:47:12;;;;;;;21.60;19.90;;;52.10;32.20;;;;;;5014075;28;20026;-82
2021/09/23 12:49:44;;;;;;;15.50;14.10;;;51.10;31.80;;;;;;5012373;28;20026;-81